Flight Track Log - Related Links

Times and Time Zones

All times are in EDT time to prevent confusion due to time zone crossing. See the JBU1329 flight status page for this flight to view local times or setup timezone preferences in your user account.

Time Position Orientation Groundspeed Altitude Reporting Facility
EDT Latitude Longitude Course Direction KTS km/h meters Rate Location/Type
Sun 08:27:50 42.3833 -71.0000 228° Southwest 142 262 335  Level KA90
Sun 08:29:08 42.4333 -70.9667 26° Northeast 204 378 1,341 866 Climbing KA90
Sun 08:30:00 42.4067 -70.7500 180° South  Level FlightAware Approximate
Sun 08:30:20 42.4667 -70.8500 69° East 278 515 2,499  Level KA90
Sun 08:31:00 42.3234 -70.7214 172° South  Level FlightAware Approximate
Sun 08:31:03 42.4361 -70.7831 122° Southeast 312 578 3,200  Level Boston Center
Sun 08:32:00 42.2570 -70.7812 228° Southwest  Level FlightAware Approximate
Sun 08:32:03 42.3522 -70.7406 159° South 326 604 3,749  Level Boston Center
Sun 08:33:03 42.2736 -70.7847 203° Southwest 281 520 4,237 427 Climbing Boston Center
Sun 08:34:03 42.2250 -70.8700 232° Southwest 272 504 4,602 533 Climbing Boston Center
Sun 08:35:03 42.1925 -70.9522 242° Southwest 258 478 5,304 762 Climbing Boston Center
Sun 08:36:03 42.1856 -71.0503 265° West 253 468 6,126 823 Climbing Boston Center
Sun 08:37:03 42.1722 -71.1486 260° West 265 491 6,949 777 Climbing Boston Center
Sun 08:38:03 42.1586 -71.2442 259° West 271 502 7,681 488 Climbing Boston Center
Sun 08:39:03 42.1450 -71.3481 260° West 276 512 7,925 122 Climbing Boston Center
Sun 08:40:03 42.1314 -71.4519 260° West 276 512 7,925 91 Level Boston Center
Sun 08:41:03 42.1197 -71.5389 260° West 282 523 8,108 244 Climbing Boston Center
Sun 08:42:03 42.0914 -71.6847 255° West 306 566 8,412 351 Climbing Boston Center
Sun 08:43:03 42.0736 -71.8164 260° West 343 636 8,809 485 Climbing Boston Center
Sun 08:44:15 42.0494 -71.9761 259° West 355 658 9,479 429 Climbing Boston Center
Sun 08:45:15 42.0122 -72.0992 248° West 361 668 9,754 137 Climbing Boston Center
Sun 08:46:15 41.9542 -72.2139 236° Southwest 361 668 9,754  Level Boston Center
Sun 08:47:15 41.9169 -72.3342 247° West 361 668 9,754  Level Boston Center
Sun 08:48:15 41.9003 -72.4597 260° West 356 660 9,754  Level Boston Center
Sun 08:49:15 41.8833 -72.5878 260° West 350 649 9,754  Level Boston Center
Sun 08:50:15 41.8500 -72.7047 249° West 345 639 9,754  Level Boston Center
Sun 08:51:15 41.7869 -72.8075 231° Southwest 342 634 9,754  Level Boston Center
Sun 08:52:15 41.7222 -72.9072 229° Southwest 360 666 9,754  Level Boston Center
Sun 08:53:15 41.6611 -73.0069 231° Southwest 365 676 9,754  Level Boston Center
Sun 08:54:15 41.6500 -73.1347 263° West 339 628 9,754  Level Boston Center
Sun 08:55:15 41.6514 -73.2681 271° West 344 637 9,754  Level Boston Center
Sun 08:56:15 41.6544 -73.3764 272° West 352 652 9,754  Level Boston Center
Sun 08:57:15 41.6656 -73.5322 276° West 352 652 9,754  Level Boston Center
Sun 08:58:51 41.7536 -73.7186 302° West 371 687 9,754  Level New York Center
Sun 08:59:54 41.7094 -73.8250 241° Southwest 303 562 9,754  Level New York Center
Sun 09:00:51 41.6181 -73.8872 207° Southwest 311 576 9,754  Level New York Center
Sun 09:01:52 41.5292 -73.9414 205° Southwest 327 605 9,754  Level New York Center
Sun 09:02:52 41.4381 -74.0006 206° Southwest 349 647 9,754  Level New York Center
Sun 09:03:52 41.3411 -74.0456 199° South 364 674 9,754  Level New York Center
Sun 09:04:53 41.2347 -74.0489 181° South 370 686 9,754 -15 Level New York Center
Sun 09:05:51 41.1478 -74.1050 206° Southwest 370 686 9,723 -200 Descending New York Center
Sun 09:06:52 41.0647 -74.1753 213° Southwest 358 663 9,357 -378 Descending New York Center
Sun 09:07:52 40.9772 -74.2450 211° Southwest 364 674 8,961 -393 Descending New York Center
Sun 09:08:53 40.8917 -74.3147 212° Southwest 370 686 8,565 -212 Descending New York Center
Sun 09:09:53 40.8042 -74.3897 213° Southwest 375 695 8,534 -15 Descending New York Center
Sun 09:10:53 40.7386 -74.4875 229° Southwest 369 684 8,534  Level New York Center
Sun 09:11:53 40.6769 -74.5883 231° Southwest 362 671 8,534  Level New York Center
Sun 09:12:51 40.6133 -74.6886 230° Southwest 367 679 8,534 -46 Level New York Center
Sun 09:13:53 40.5494 -74.7914 231° Southwest 367 679 8,443 -305 Descending New York Center
Sun 09:14:51 40.4814 -74.8883 227° Southwest 367 679 7,925 -533 Descending New York Center
Sun 09:15:53 40.4136 -74.9797 226° Southwest 362 671 7,376 -525 Descending New York Center
Sun 09:16:53 40.3456 -75.0764 227° Southwest 362 671 6,858 -518 Descending New York Center
Sun 09:17:53 40.2817 -75.1678 228° Southwest 356 660 6,340 -522 Descending New York Center
Sun 09:18:52 40.2178 -75.2586 227° Southwest 356 660 5,822 -430 Descending New York Center
Sun 09:19:52 40.1519 -75.3494 227° Southwest 356 660 5,486 -166 Descending New York Center
Sun 09:20:53 40.0878 -75.4403 227° Southwest 356 660 5,486  Level New York Center
Sun 09:21:54 40.0219 -75.5253 225° Southwest 350 649 5,486 -16 Level New York Center
Sun 09:22:51 39.9578 -75.6158 227° Southwest 350 649 5,456 -250 Descending New York Center
Sun 09:23:51 39.8978 -75.7064 229° Southwest 350 649 4,999 -484 Descending New York Center
Sun 09:24:52 39.8456 -75.8081 236° Southwest 339 628 4,481 -468 Descending New York Center
Sun 09:25:52 39.8022 -75.8914 236° Southwest 334 618 4,054 -411 Descending New York Center
Sun 09:26:52 39.7497 -75.9956 237° Southwest 329 610 3,658 -294 Descending New York Center
Sun 09:29:05 39.6167 -76.1667 225° Southwest 276 512 3,109 -339 Descending Potomac TRACON
Sun 09:30:06 39.5667 -76.2333 226° Southwest 277 513 2,560 -544 Descending Potomac TRACON
Sun 09:31:06 39.5000 -76.3000 218° Southwest 271 502 2,012 -529 Descending Potomac TRACON
Sun 09:32:00 39.4500 -76.3500 218° Southwest 265 491 1,554 -321 Descending Potomac TRACON
Sun 09:33:00 39.4000 -76.4167 226° Southwest 273 505 1,402 -168 Descending Potomac TRACON
Sun 09:34:00 39.3167 -76.4333 189° South 274 507 1,219 -255 Descending Potomac TRACON
Sun 09:34:55 39.2667 -76.4833 218° Southwest 267 494 914 -159 Descending Potomac TRACON
Sun 09:35:55 39.2000 -76.5333 210° Southwest 235 435 914 -122 Level Potomac TRACON
Sun 09:36:55 39.1667 -76.5667 218° Southwest 191 354 671 -229 Descending Potomac TRACON
Sun 09:37:55 39.1333 -76.6167 229° Southwest 161 298 457 -244 Descending Potomac TRACON
Sun 09:38:55 39.1500 -76.6500 303° West 121 224 183 -274 Descending Potomac TRACON

Login

Don't have an account? Register now (free) for customized features, flight alerts, and more!